sensor_id;sensor_type;location;lat;lon;timestamp;pressure;altitude;pressure_sealevel;temperature;humidity
20119;BME280;10220;42.716;23.306;2023-05-02T00:02:16;95569.88;;;13.89;100.00
20119;BME280;10220;42.716;23.306;2023-05-02T00:04:42;95580.72;;;13.86;100.00
20119;BME280;10220;42.716;23.306;2023-05-02T00:07:07;95579.81;;;13.98;100.00
20119;BME280;10220;42.716;23.306;2023-05-02T00:09:33;95590.38;;;14.03;100.00
20119;BME280;10220;42.716;23.306;2023-05-02T00:11:58;95587.97;;;14.08;100.00
20119;BME280;10220;42.716;23.306;2023-05-02T00:14:24;95586.09;;;13.91;100.00
20119;BME280;10220;42.716;23.306;2023-05-02T00:16:50;95581.41;;;13.99;100.00
20119;BME280;10220;42.716;23.306;2023-05-02T00:19:15;95582.06;;;13.95;100.00
20119;BME280;10220;42.716;23.306;2023-05-02T00:21:40;95570.81;;;13.94;100.00
20119;BME280;10220;42.716;23.306;2023-05-02T00:24:06;95594.69;;;13.91;100.00
20119;BME280;10220;42.716;23.306;2023-05-02T00:26:31;95586.25;;;13.71;100.00
20119;BME280;10220;42.716;23.306;2023-05-02T00:28:57;95599.53;;;13.63;100.00
20119;BME280;10220;42.716;23.306;2023-05-02T00:31:23;95583.94;;;13.57;100.00
20119;BME280;10220;42.716;23.306;2023-05-02T00:33:48;95577.88;;;13.32;100.00
20119;BME280;10220;42.716;23.306;2023-05-02T00:36:17;95602.56;;;13.54;100.00
20119;BME280;10220;42.716;23.306;2023-05-02T00:38:44;95609.19;;;13.50;100.00
20119;BME280;10220;42.716;23.306;2023-05-02T00:41:09;95614.38;;;13.56;100.00
20119;BME280;10220;42.716;23.306;2023-05-02T00:43:35;95610.16;;;13.55;100.00
20119;BME280;10220;42.716;23.306;2023-05-02T00:46:01;95594.22;;;13.46;100.00
20119;BME280;10220;42.716;23.306;2023-05-02T00:48:27;95614.38;;;13.56;100.00
20119;BME280;10220;42.716;23.306;2023-05-02T00:50:54;95615.50;;;13.67;100.00
20119;BME280;10220;42.716;23.306;2023-05-02T00:53:19;95605.38;;;13.52;100.00
20119;BME280;10220;42.716;23.306;2023-05-02T00:55:45;95612.50;;;13.70;100.00
20119;BME280;10220;42.716;23.306;2023-05-02T00:58:13;95617.22;;;13.79;100.00
20119;BME280;10220;42.716;23.306;2023-05-02T01:03:22;95612.31;;;13.65;100.00
20119;BME280;10220;42.716;23.306;2023-05-02T01:06:09;95611.63;;;13.76;100.00
20119;BME280;10220;42.716;23.306;2023-05-02T01:08:58;95608.56;;;13.85;100.00
20119;BME280;10220;42.716;23.306;2023-05-02T01:13:58;95603.59;;;13.77;100.00
20119;BME280;10220;42.716;23.306;2023-05-02T01:16:27;95616.59;;;13.84;100.00
20119;BME280;10220;42.716;23.306;2023-05-02T01:18:53;95601.81;;;13.78;100.00
20119;BME280;10220;42.716;23.306;2023-05-02T01:21:22;95608.94;;;13.58;100.00
20119;BME280;10220;42.716;23.306;2023-05-02T01:24:00;95606.94;;;13.60;100.00
20119;BME280;10220;42.716;23.306;2023-05-02T01:26:51;95597.34;;;13.54;100.00
20119;BME280;10220;42.716;23.306;2023-05-02T01:29:19;95584.81;;;13.45;100.00
20119;BME280;10220;42.716;23.306;2023-05-02T01:31:48;95581.22;;;13.46;100.00
20119;BME280;10220;42.716;23.306;2023-05-02T01:34:15;95572.97;;;13.48;100.00
20119;BME280;10220;42.716;23.306;2023-05-02T01:36:43;95582.78;;;13.53;100.00
20119;BME280;10220;42.716;23.306;2023-05-02T01:39:14;95581.63;;;13.43;100.00
20119;BME280;10220;42.716;23.306;2023-05-02T01:41:42;95585.13;;;13.24;100.00
20119;BME280;10220;42.716;23.306;2023-05-02T01:44:08;95572.53;;;13.27;100.00
20119;BME280;10220;42.716;23.306;2023-05-02T01:46:37;95601.03;;;13.47;100.00
20119;BME280;10220;42.716;23.306;2023-05-02T01:49:05;95606.91;;;13.29;100.00
20119;BME280;10220;42.716;23.306;2023-05-02T01:51:34;95609.19;;;13.19;100.00
20119;BME280;10220;42.716;23.306;2023-05-02T01:54:04;95602.53;;;13.30;100.00
20119;BME280;10220;42.716;23.306;2023-05-02T01:56:36;95595.00;;;13.15;100.00
20119;BME280;10220;42.716;23.306;2023-05-02T01:59:05;95612.31;;;13.34;100.00
20119;BME280;10220;42.716;23.306;2023-05-02T02:01:34;95605.53;;;13.27;100.00
20119;BME280;10220;42.716;23.306;2023-05-02T02:04:00;95598.00;;;13.12;100.00
20119;BME280;10220;42.716;23.306;2023-05-02T02:06:26;95582.75;;;13.22;100.00
20119;BME280;10220;42.716;23.306;2023-05-02T02:08:52;95593.19;;;13.16;100.00
20119;BME280;10220;42.716;23.306;2023-05-02T02:11:24;95593.38;;;13.21;100.00
20119;BME280;10220;42.716;23.306;2023-05-02T02:13:57;95604.28;;;12.98;100.00
20119;BME280;10220;42.716;23.306;2023-05-02T02:16:30;95609.03;;;13.08;100.00
20119;BME280;10220;42.716;23.306;2023-05-02T02:18:58;95594.41;;;13.13;100.00
20119;BME280;10220;42.716;23.306;2023-05-02T02:21:29;95599.38;;;13.15;100.00
20119;BME280;10220;42.716;23.306;2023-05-02T02:23:56;95598.00;;;13.12;100.00
20119;BME280;10220;42.716;23.306;2023-05-02T02:26:23;95601.88;;;12.97;100.00
20119;BME280;10220;42.716;23.306;2023-05-02T02:28:49;95595.97;;;12.58;100.00
20119;BME280;10220;42.716;23.306;2023-05-02T02:31:15;95612.50;;;12.83;100.00
20119;BME280;10220;42.716;23.306;2023-05-02T02:33:40;95590.56;;;12.66;100.00
20119;BME280;10220;42.716;23.306;2023-05-02T02:36:20;95602.31;;;12.75;100.00
20119;BME280;10220;42.716;23.306;2023-05-02T02:44:59;95597.53;;;12.72;100.00
20119;BME280;10220;42.716;23.306;2023-05-02T02:53:04;95595.97;;;12.58;100.00
20119;BME280;10220;42.716;23.306;2023-05-02T02:55:37;95597.34;;;12.67;100.00
20119;BME280;10220;42.716;23.306;2023-05-02T02:58:28;95618.34;;;12.65;100.00
20119;BME280;10220;42.716;23.306;2023-05-02T03:00:56;95613.19;;;12.59;100.00
20119;BME280;10220;42.716;23.306;2023-05-02T03:03:25;95617.75;;;12.63;100.00
20119;BME280;10220;42.716;23.306;2023-05-02T03:05:54;95627.56;;;12.61;100.00
20119;BME280;10220;42.716;23.306;2023-05-02T03:08:21;95625.94;;;12.67;100.00
20119;BME280;10220;42.716;23.306;2023-05-02T03:10:46;95628.28;;;12.94;100.00
20119;BME280;10220;42.716;23.306;2023-05-02T03:13:12;95619.28;;;12.84;100.00
20119;BME280;10220;42.716;23.306;2023-05-02T03:18:18;95635.69;;;12.84;100.00
20119;BME280;10220;42.716;23.306;2023-05-02T03:20:44;95639.56;;;12.69;100.00
20119;BME280;10220;42.716;23.306;2023-05-02T03:23:09;95637.94;;;12.68;100.00
20119;BME280;10220;42.716;23.306;2023-05-02T03:25:34;95623.38;;;12.60;100.00
20119;BME280;10220;42.716;23.306;2023-05-02T03:28:00;95641.34;;;12.68;100.00
20119;BME280;10220;42.716;23.306;2023-05-02T03:30:26;95637.94;;;12.74;100.00
20119;BME280;10220;42.716;23.306;2023-05-02T03:32:51;95613.81;;;12.54;100.00
20119;BME280;10220;42.716;23.306;2023-05-02T03:35:17;95641.13;;;12.70;100.00
20119;BME280;10220;42.716;23.306;2023-05-02T03:37:43;95644.31;;;12.78;100.00
20119;BME280;10220;42.716;23.306;2023-05-02T03:40:09;95637.13;;;12.67;100.00
20119;BME280;10220;42.716;23.306;2023-05-02T03:42:35;95638.75;;;12.62;100.00
20119;BME280;10220;42.716;23.306;2023-05-02T03:45:07;95643.56;;;12.58;100.00
20119;BME280;10220;42.716;23.306;2023-05-02T03:47:33;95644.75;;;12.62;100.00
20119;BME280;10220;42.716;23.306;2023-05-02T03:49:59;95645.34;;;12.71;100.00
20119;BME280;10220;42.716;23.306;2023-05-02T03:52:25;95649.94;;;12.75;100.00
20119;BME280;10220;42.716;23.306;2023-05-02T03:54:50;95656.13;;;12.74;100.00
20119;BME280;10220;42.716;23.306;2023-05-02T03:57:16;95646.91;;;12.78;100.00
20119;BME280;10220;42.716;23.306;2023-05-02T03:59:42;95650.72;;;12.76;100.00
20119;BME280;10220;42.716;23.306;2023-05-02T04:02:10;95655.16;;;12.69;100.00
20119;BME280;10220;42.716;23.306;2023-05-02T04:04:35;95645.72;;;12.81;100.00
20119;BME280;10220;42.716;23.306;2023-05-02T04:07:01;95653.25;;;13.08;100.00
20119;BME280;10220;42.716;23.306;2023-05-02T04:09:26;95648.47;;;13.48;100.00
20119;BME280;10220;42.716;23.306;2023-05-02T04:11:52;95650.69;;;13.76;100.00
20119;BME280;10220;42.716;23.306;2023-05-02T04:14:18;95650.91;;;13.74;100.00
20119;BME280;10220;42.716;23.306;2023-05-02T04:16:53;95657.25;;;13.85;100.00
20119;BME280;10220;42.716;23.306;2023-05-02T04:19:18;95643.28;;;14.04;100.00
20119;BME280;10220;42.716;23.306;2023-05-02T04:21:44;95638.69;;;14.30;100.00
20119;BME280;10220;42.716;23.306;2023-05-02T04:24:09;95644.63;;;14.61;100.00
20119;BME280;10220;42.716;23.306;2023-05-02T04:26:35;95657.81;;;15.02;100.00
20119;BME280;10220;42.716;23.306;2023-05-02T04:29:00;95646.91;;;15.29;100.00
20119;BME280;10220;42.716;23.306;2023-05-02T04:31:26;95649.97;;;15.55;100.00
20119;BME280;10220;42.716;23.306;2023-05-02T04:33:52;95651.22;;;15.82;100.00
20119;BME280;10220;42.716;23.306;2023-05-02T04:36:17;95640.34;;;15.38;100.00
20119;BME280;10220;42.716;23.306;2023-05-02T04:38:43;95643.75;;;14.49;100.00
20119;BME280;10220;42.716;23.306;2023-05-02T04:41:09;95663.91;;;15.14;100.00
20119;BME280;10220;42.716;23.306;2023-05-02T04:43:34;95657.13;;;14.53;100.00
20119;BME280;10220;42.716;23.306;2023-05-02T04:46:00;95663.78;;;14.91;100.00
20119;BME280;10220;42.716;23.306;2023-05-02T04:48:25;95634.13;;;14.68;100.00
20119;BME280;10220;42.716;23.306;2023-05-02T04:50:51;95670.13;;;14.77;100.00
20119;BME280;10220;42.716;23.306;2023-05-02T04:53:19;95657.09;;;15.13;100.00
20119;BME280;10220;42.716;23.306;2023-05-02T04:55:44;95662.56;;;15.29;100.00
20119;BME280;10220;42.716;23.306;2023-05-02T04:58:10;95665.72;;;15.13;100.00
20119;BME280;10220;42.716;23.306;2023-05-02T05:00:35;95654.50;;;15.30;100.00
20119;BME280;10220;42.716;23.306;2023-05-02T05:03:01;95660.28;;;15.15;100.00
20119;BME280;10220;42.716;23.306;2023-05-02T05:05:26;95658.06;;;15.18;100.00
20119;BME280;10220;42.716;23.306;2023-05-02T05:07:52;95658.50;;;15.33;100.00
20119;BME280;10220;42.716;23.306;2023-05-02T05:10:17;95669.13;;;15.79;100.00
20119;BME280;10220;42.716;23.306;2023-05-02T05:12:43;95674.53;;;15.66;100.00
20119;BME280;10220;42.716;23.306;2023-05-02T05:15:09;95663.56;;;15.75;100.00
20119;BME280;10220;42.716;23.306;2023-05-02T05:17:36;95666.97;;;15.76;100.00
20119;BME280;10220;42.716;23.306;2023-05-02T05:20:02;95661.44;;;15.54;100.00
20119;BME280;10220;42.716;23.306;2023-05-02T05:22:27;95665.94;;;15.47;100.00
20119;BME280;10220;42.716;23.306;2023-05-02T05:24:53;95662.38;;;16.00;98.70
20119;BME280;10220;42.716;23.306;2023-05-02T05:27:18;95667.66;;;15.71;98.86
20119;BME280;10220;42.716;23.306;2023-05-02T05:29:44;95652.25;;;15.52;99.03
20119;BME280;10220;42.716;23.306;2023-05-02T05:32:09;95670.69;;;15.39;100.00
20119;BME280;10220;42.716;23.306;2023-05-02T05:34:35;95678.75;;;15.37;100.00
20119;BME280;10220;42.716;23.306;2023-05-02T05:37:01;95666.25;;;15.39;100.00
20119;BME280;10220;42.716;23.306;2023-05-02T05:39:26;95660.97;;;15.10;100.00
20119;BME280;10220;42.716;23.306;2023-05-02T05:41:52;95655.44;;;15.36;100.00
20119;BME280;10220;42.716;23.306;2023-05-02T05:44:18;95677.19;;;15.48;97.78
20119;BME280;10220;42.716;23.306;2023-05-02T05:46:46;95680.13;;;15.69;98.00
20119;BME280;10220;42.716;23.306;2023-05-02T05:49:14;95668.63;;;15.88;94.04
20119;BME280;10220;42.716;23.306;2023-05-02T05:51:39;95674.13;;;16.09;90.71
20119;BME280;10220;42.716;23.306;2023-05-02T05:54:05;95669.22;;;15.72;91.76
20119;BME280;10220;42.716;23.306;2023-05-02T05:56:31;95663.09;;;15.49;95.24
20119;BME280;10220;42.716;23.306;2023-05-02T05:58:56;95674.69;;;15.53;91.04
20119;BME280;10220;42.716;23.306;2023-05-02T06:01:22;95686.50;;;15.26;95.91
20119;BME280;10220;42.716;23.306;2023-05-02T06:03:47;95687.94;;;15.22;96.77
20119;BME280;10220;42.716;23.306;2023-05-02T06:06:13;95675.25;;;15.26;96.18
20119;BME280;10220;42.716;23.306;2023-05-02T06:08:38;95684.34;;;15.23;97.09
20119;BME280;10220;42.716;23.306;2023-05-02T06:11:07;95693.28;;;15.45;96.54
20119;BME280;10220;42.716;23.306;2023-05-02T06:13:33;95694.09;;;15.45;96.78
20119;BME280;10220;42.716;23.306;2023-05-02T06:16:00;95672.75;;;15.48;93.01
20119;BME280;10220;42.716;23.306;2023-05-02T06:18:25;95677.47;;;15.40;92.63
20119;BME280;10220;42.716;23.306;2023-05-02T06:20:51;95689.09;;;15.26;93.67
20119;BME280;10220;42.716;23.306;2023-05-02T06:23:16;95686.28;;;15.27;93.50
20119;BME280;10220;42.716;23.306;2023-05-02T06:25:42;95676.28;;;15.25;94.18
20119;BME280;10220;42.716;23.306;2023-05-02T06:28:07;95643.41;;;15.17;91.59
20119;BME280;10220;42.716;23.306;2023-05-02T06:30:33;95641.50;;;15.42;89.51
20119;BME280;10220;42.716;23.306;2023-05-02T06:32:59;95680.03;;;15.76;87.39
20119;BME280;10220;42.716;23.306;2023-05-02T06:35:24;95685.63;;;15.79;84.18
20119;BME280;10220;42.716;23.306;2023-05-02T06:37:50;95674.66;;;16.00;82.75
20119;BME280;10220;42.716;23.306;2023-05-02T06:40:15;95680.13;;;16.10;81.82
20119;BME280;10220;42.716;23.306;2023-05-02T06:42:41;95675.69;;;16.40;78.91
20119;BME280;10220;42.716;23.306;2023-05-02T06:45:06;95676.72;;;16.61;74.65
20119;BME280;10220;42.716;23.306;2023-05-02T06:47:32;95664.19;;;16.41;72.04
20119;BME280;10220;42.716;23.306;2023-05-02T06:49:58;95668.53;;;16.58;73.06
20119;BME280;10220;42.716;23.306;2023-05-02T06:52:23;95658.66;;;16.71;69.52
20119;BME280;10220;42.716;23.306;2023-05-02T06:54:49;95662.41;;;16.64;70.58
20119;BME280;10220;42.716;23.306;2023-05-02T06:57:14;95670.38;;;16.80;69.25
20119;BME280;10220;42.716;23.306;2023-05-02T06:59:40;95677.97;;;16.93;69.60
20119;BME280;10220;42.716;23.306;2023-05-02T07:02:05;95638.63;;;16.77;65.77
20119;BME280;10220;42.716;23.306;2023-05-02T07:04:31;95649.03;;;17.11;65.53
20119;BME280;10220;42.716;23.306;2023-05-02T07:06:56;95663.69;;;17.23;66.07
20119;BME280;10220;42.716;23.306;2023-05-02T07:09:22;95618.75;;;17.03;64.77
20119;BME280;10220;42.716;23.306;2023-05-02T07:11:47;95663.63;;;17.58;63.21
20119;BME280;10220;42.716;23.306;2023-05-02T07:14:19;95669.53;;;17.92;61.76
20119;BME280;10220;42.716;23.306;2023-05-02T07:16:45;95631.22;;;17.91;60.54
20119;BME280;10220;42.716;23.306;2023-05-02T07:19:11;95638.69;;;17.99;58.10
20119;BME280;10220;42.716;23.306;2023-05-02T07:21:36;95647.25;;;17.51;59.83
20119;BME280;10220;42.716;23.306;2023-05-02T07:24:02;95654.78;;;17.75;59.91
20119;BME280;10220;42.716;23.306;2023-05-02T07:26:43;95637.72;;;18.33;56.51
20119;BME280;10220;42.716;23.306;2023-05-02T07:29:09;95650.50;;;18.29;56.63
20119;BME280;10220;42.716;23.306;2023-05-02T07:31:34;95630.06;;;17.71;56.55
20119;BME280;10220;42.716;23.306;2023-05-02T07:34:00;95672.56;;;18.01;56.75
20119;BME280;10220;42.716;23.306;2023-05-02T07:36:25;95669.97;;;17.73;57.21
20119;BME280;10220;42.716;23.306;2023-05-02T07:38:52;95669.34;;;17.55;57.97
20119;BME280;10220;42.716;23.306;2023-05-02T07:41:17;95669.09;;;17.84;59.07
20119;BME280;10220;42.716;23.306;2023-05-02T07:43:42;95662.06;;;18.01;57.76
20119;BME280;10220;42.716;23.306;2023-05-02T07:46:08;95666.91;;;18.09;56.16
20119;BME280;10220;42.716;23.306;2023-05-02T07:48:33;95687.91;;;18.09;57.02
20119;BME280;10220;42.716;23.306;2023-05-02T07:51:08;95672.63;;;17.89;57.41
20119;BME280;10220;42.716;23.306;2023-05-02T07:53:34;95675.81;;;18.35;55.06
20119;BME280;10220;42.716;23.306;2023-05-02T07:56:00;95677.47;;;18.25;55.49
20119;BME280;10220;42.716;23.306;2023-05-02T07:58:26;95671.38;;;18.52;55.77
20119;BME280;10220;42.716;23.306;2023-05-02T08:00:52;95678.50;;;18.57;54.29
20119;BME280;10220;42.716;23.306;2023-05-02T08:03:17;95659.44;;;18.61;54.88
20119;BME280;10220;42.716;23.306;2023-05-02T08:05:43;95651.22;;;18.74;54.36
20119;BME280;10220;42.716;23.306;2023-05-02T08:08:08;95654.88;;;18.89;54.51
20119;BME280;10220;42.716;23.306;2023-05-02T08:10:33;95665.44;;;19.11;52.96
20119;BME280;10220;42.716;23.306;2023-05-02T08:12:59;95673.94;;;19.01;52.70
20119;BME280;10220;42.716;23.306;2023-05-02T08:15:24;95678.47;;;18.52;54.38
20119;BME280;10220;42.716;23.306;2023-05-02T08:17:50;95677.84;;;18.99;53.31
20119;BME280;10220;42.716;23.306;2023-05-02T08:20:15;95669.94;;;18.61;53.40
20119;BME280;10220;42.716;23.306;2023-05-02T08:22:41;95666.56;;;18.66;53.76
20119;BME280;10220;42.716;23.306;2023-05-02T08:25:06;95680.25;;;18.84;53.22
20119;BME280;10220;42.716;23.306;2023-05-02T08:27:33;95655.25;;;18.98;53.14
20119;BME280;10220;42.716;23.306;2023-05-02T08:29:59;95645.50;;;18.77;52.63
20119;BME280;10220;42.716;23.306;2023-05-02T08:32:25;95638.47;;;18.83;52.30
20119;BME280;10220;42.716;23.306;2023-05-02T08:34:54;95662.50;;;18.91;53.30
20119;BME280;10220;42.716;23.306;2023-05-02T08:37:21;95655.00;;;19.16;51.33
20119;BME280;10220;42.716;23.306;2023-05-02T08:39:47;95668.63;;;19.55;50.52
20119;BME280;10220;42.716;23.306;2023-05-02T08:42:12;95667.56;;;19.56;50.69
20119;BME280;10220;42.716;23.306;2023-05-02T08:44:38;95670.88;;;19.47;51.05
20119;BME280;10220;42.716;23.306;2023-05-02T08:47:06;95662.09;;;18.83;51.33
20119;BME280;10220;42.716;23.306;2023-05-02T08:49:35;95650.59;;;18.34;52.45
20119;BME280;10220;42.716;23.306;2023-05-02T08:52:03;95672.22;;;18.74;53.01
20119;BME280;10220;42.716;23.306;2023-05-02T08:54:30;95662.19;;;19.25;52.24
20119;BME280;10220;42.716;23.306;2023-05-02T08:57:00;95657.38;;;19.39;51.28
20119;BME280;10220;42.716;23.306;2023-05-02T08:59:27;95670.41;;;19.71;50.35
20119;BME280;10220;42.716;23.306;2023-05-02T09:01:58;95657.78;;;19.73;49.66
20119;BME280;10220;42.716;23.306;2023-05-02T09:04:30;95658.53;;;19.69;49.26
20119;BME280;10220;42.716;23.306;2023-05-02T09:06:56;95654.38;;;19.51;48.92
20119;BME280;10220;42.716;23.306;2023-05-02T09:09:21;95647.97;;;19.43;49.13
20119;BME280;10220;42.716;23.306;2023-05-02T09:11:48;95639.28;;;19.21;49.90
20119;BME280;10220;42.716;23.306;2023-05-02T09:14:15;95634.75;;;19.59;48.93
20119;BME280;10220;42.716;23.306;2023-05-02T09:16:41;95636.53;;;20.01;49.60
20119;BME280;10220;42.716;23.306;2023-05-02T09:19:06;95639.59;;;20.19;48.28
20119;BME280;10220;42.716;23.306;2023-05-02T09:21:38;95648.84;;;20.27;46.87
20119;BME280;10220;42.716;23.306;2023-05-02T09:24:20;95644.25;;;20.44;47.73
20119;BME280;10220;42.716;23.306;2023-05-02T09:27:03;95598.28;;;20.20;46.93
20119;BME280;10220;42.716;23.306;2023-05-02T09:29:30;95641.25;;;19.99;47.22
20119;BME280;10220;42.716;23.306;2023-05-02T09:32:01;95640.38;;;19.67;47.28
20119;BME280;10220;42.716;23.306;2023-05-02T09:34:28;95642.03;;;20.00;46.78
20119;BME280;10220;42.716;23.306;2023-05-02T09:36:53;95637.59;;;19.79;46.74
20119;BME280;10220;42.716;23.306;2023-05-02T09:39:23;95630.25;;;19.33;47.99
20119;BME280;10220;42.716;23.306;2023-05-02T09:41:49;95627.50;;;19.23;47.97
20119;BME280;10220;42.716;23.306;2023-05-02T09:44:21;95632.69;;;19.40;47.65
20119;BME280;10220;42.716;23.306;2023-05-02T09:46:48;95631.28;;;19.11;47.12
20119;BME280;10220;42.716;23.306;2023-05-02T09:49:14;95623.34;;;19.27;46.98
20119;BME280;10220;42.716;23.306;2023-05-02T09:51:44;95635.94;;;19.46;47.35
20119;BME280;10220;42.716;23.306;2023-05-02T09:54:11;95616.13;;;19.87;46.23
20119;BME280;10220;42.716;23.306;2023-05-02T09:56:55;95617.78;;;20.24;47.11
20119;BME280;10220;42.716;23.306;2023-05-02T09:59:21;95610.59;;;20.46;45.32
20119;BME280;10220;42.716;23.306;2023-05-02T10:02:01;95607.13;;;20.40;45.39
20119;BME280;10220;42.716;23.306;2023-05-02T10:04:27;95612.94;;;20.42;44.77
20119;BME280;10220;42.716;23.306;2023-05-02T10:06:54;95616.41;;;20.84;44.74
20119;BME280;10220;42.716;23.306;2023-05-02T10:09:20;95617.66;;;20.71;44.05
20119;BME280;10220;42.716;23.306;2023-05-02T10:11:50;95610.06;;;20.12;44.79
20119;BME280;10220;42.716;23.306;2023-05-02T10:14:18;95618.16;;;20.06;45.11
20119;BME280;10220;42.716;23.306;2023-05-02T10:19:58;95608.72;;;20.10;44.69
20119;BME280;10220;42.716;23.306;2023-05-02T10:22:25;95603.59;;;19.94;44.39
20119;BME280;10220;42.716;23.306;2023-05-02T10:24:52;95590.03;;;19.85;45.05
20119;BME280;10220;42.716;23.306;2023-05-02T10:27:18;95598.53;;;19.66;45.41
20119;BME280;10220;42.716;23.306;2023-05-02T10:29:45;95597.69;;;19.60;44.82
20119;BME280;10220;42.716;23.306;2023-05-02T10:32:12;95599.41;;;19.50;45.70
20119;BME280;10220;42.716;23.306;2023-05-02T10:34:39;95603.31;;;19.43;45.81
20119;BME280;10220;42.716;23.306;2023-05-02T10:37:05;95605.19;;;19.47;45.77
20119;BME280;10220;42.716;23.306;2023-05-02T10:39:31;95595.56;;;19.57;45.39
20119;BME280;10220;42.716;23.306;2023-05-02T10:41:58;95585.19;;;19.72;44.54
20119;BME280;10220;42.716;23.306;2023-05-02T10:44:33;95576.50;;;19.98;44.65
20119;BME280;10220;42.716;23.306;2023-05-02T10:46:59;95582.44;;;20.15;44.00
20119;BME280;10220;42.716;23.306;2023-05-02T10:49:25;95552.03;;;20.29;44.72
20119;BME280;10220;42.716;23.306;2023-05-02T10:51:51;95584.63;;;20.64;43.73
20119;BME280;10220;42.716;23.306;2023-05-02T10:54:23;95580.84;;;20.45;43.74
20119;BME280;10220;42.716;23.306;2023-05-02T10:59:28;95571.34;;;20.80;43.05
20119;BME280;10220;42.716;23.306;2023-05-02T11:01:53;95578.31;;;20.60;42.48
20119;BME280;10220;42.716;23.306;2023-05-02T11:04:19;95568.63;;;20.70;43.50
20119;BME280;10220;42.716;23.306;2023-05-02T11:11:54;95564.72;;;21.34;42.16
20119;BME280;10220;42.716;23.306;2023-05-02T11:24:42;95551.56;;;21.49;42.26
20119;BME280;10220;42.716;23.306;2023-05-02T11:30:42;95549.50;;;21.51;42.00
20119;BME280;10220;42.716;23.306;2023-05-02T11:33:20;95527.72;;;21.04;42.85
20119;BME280;10220;42.716;23.306;2023-05-02T11:35:46;95552.31;;;21.24;42.61
20119;BME280;10220;42.716;23.306;2023-05-02T11:38:15;95545.06;;;21.66;42.09
20119;BME280;10220;42.716;23.306;2023-05-02T11:40:48;95539.00;;;22.10;41.64
20119;BME280;10220;42.716;23.306;2023-05-02T11:43:18;95532.13;;;21.84;41.53
20119;BME280;10220;42.716;23.306;2023-05-02T11:45:45;95531.31;;;21.59;41.78
20119;BME280;10220;42.716;23.306;2023-05-02T11:48:12;95524.38;;;21.38;42.37
20119;BME280;10220;42.716;23.306;2023-05-02T11:53:14;95527.25;;;21.27;43.13
20119;BME280;10220;42.716;23.306;2023-05-02T11:55:48;95528.34;;;21.31;42.78
20119;BME280;10220;42.716;23.306;2023-05-02T11:58:15;95526.44;;;21.22;42.52
20119;BME280;10220;42.716;23.306;2023-05-02T12:00:41;95525.69;;;21.31;42.74
20119;BME280;10220;42.716;23.306;2023-05-02T12:03:21;95515.91;;;21.17;42.56
20119;BME280;10220;42.716;23.306;2023-05-02T12:05:47;95506.66;;;21.24;42.89
20119;BME280;10220;42.716;23.306;2023-05-02T12:08:26;95497.22;;;21.23;42.84
20119;BME280;10220;42.716;23.306;2023-05-02T12:10:56;95490.59;;;21.16;43.22
20119;BME280;10220;42.716;23.306;2023-05-02T12:13:25;95503.75;;;21.11;43.06
20119;BME280;10220;42.716;23.306;2023-05-02T12:15:52;95498.59;;;20.74;43.53
20119;BME280;10220;42.716;23.306;2023-05-02T12:18:19;95487.59;;;20.87;44.39
20119;BME280;10220;42.716;23.306;2023-05-02T12:20:48;95477.56;;;20.79;43.35
20119;BME280;10220;42.716;23.306;2023-05-02T12:23:17;95493.06;;;20.76;43.38
20119;BME280;10220;42.716;23.306;2023-05-02T12:25:43;95480.56;;;20.52;43.53
20119;BME280;10220;42.716;23.306;2023-05-02T12:28:09;95476.75;;;20.74;43.73
20119;BME280;10220;42.716;23.306;2023-05-02T12:30:37;95493.59;;;20.73;43.04
20119;BME280;10220;42.716;23.306;2023-05-02T12:33:03;95471.84;;;20.46;43.04
20119;BME280;10220;42.716;23.306;2023-05-02T12:35:30;95482.56;;;20.30;43.24
20119;BME280;10220;42.716;23.306;2023-05-02T12:38:16;95474.75;;;20.50;43.00
20119;BME280;10220;42.716;23.306;2023-05-02T12:40:51;95470.28;;;20.45;42.22
20119;BME280;10220;42.716;23.306;2023-05-02T12:43:17;95472.09;;;20.45;42.54
20119;BME280;10220;42.716;23.306;2023-05-02T12:45:43;95464.66;;;20.32;43.14
20119;BME280;10220;42.716;23.306;2023-05-02T12:48:24;95421.31;;;20.54;42.01
20119;BME280;10220;42.716;23.306;2023-05-02T12:50:51;95451.66;;;20.66;42.00
20119;BME280;10220;42.716;23.306;2023-05-02T12:53:36;95444.00;;;20.65;41.93
20119;BME280;10220;42.716;23.306;2023-05-02T12:56:03;95451.41;;;20.68;41.37
20119;BME280;10220;42.716;23.306;2023-05-02T12:58:39;95454.56;;;20.70;40.99
20119;BME280;10220;42.716;23.306;2023-05-02T13:01:06;95470.03;;;20.57;41.49
20119;BME280;10220;42.716;23.306;2023-05-02T13:03:32;95446.53;;;20.40;41.01
20119;BME280;10220;42.716;23.306;2023-05-02T13:05:57;95445.78;;;20.50;41.08
20119;BME280;10220;42.716;23.306;2023-05-02T13:08:22;95451.38;;;20.58;41.32
20119;BME280;10220;42.716;23.306;2023-05-02T13:10:48;95451.09;;;20.64;41.20
20119;BME280;10220;42.716;23.306;2023-05-02T13:13:13;95441.34;;;20.55;41.30
20119;BME280;10220;42.716;23.306;2023-05-02T13:15:40;95435.56;;;20.58;41.56
20119;BME280;10220;42.716;23.306;2023-05-02T13:18:05;95452.69;;;20.56;41.34
20119;BME280;10220;42.716;23.306;2023-05-02T13:20:31;95447.66;;;20.59;40.62
20119;BME280;10220;42.716;23.306;2023-05-02T13:22:56;95442.25;;;20.29;40.88
20119;BME280;10220;42.716;23.306;2023-05-02T13:25:22;95446.97;;;20.22;41.05
20119;BME280;10220;42.716;23.306;2023-05-02T13:27:47;95429.28;;;20.13;41.40
20119;BME280;10220;42.716;23.306;2023-05-02T13:30:12;95459.94;;;20.34;41.18
20119;BME280;10220;42.716;23.306;2023-05-02T13:32:38;95449.16;;;20.35;41.02
20119;BME280;10220;42.716;23.306;2023-05-02T13:35:04;95446.22;;;20.32;41.44